Time;durP1;ratioP1;P1;durP2;ratioP2;P2;SDS_P1;SDS_P2;PMS_P1;PMS_P2;Temp;Humidity;BMP_temperature;BMP_pressure;BME280_temperature;BME280_humidity;BME280_pressure;Samples;Min_cycle;Max_cycle;Signal;HPM_P1;HPM_P2
2023/08/12 00:02:18;;;;;;;3.72;2.40;;;;;;;18.31;58.48;96827.91;5013507;28;20112;-69
2023/08/12 00:04:47;;;;;;;2.95;2.30;;;;;;;18.28;59.31;96830.75;5013477;28;20163;-69
2023/08/12 00:07:14;;;;;;;2.72;2.05;;;;;;;18.22;58.39;96834.66;5013362;28;20060;-69
2023/08/12 00:09:41;;;;;;;4.72;2.80;;;;;;;18.25;58.76;96828.31;5013710;28;20060;-68
2023/08/12 00:12:09;;;;;;;3.15;2.15;;;;;;;18.29;58.47;96828.00;5013530;28;20474;-69
2023/08/12 00:14:36;;;;;;;2.85;2.10;;;;;;;18.34;58.78;96833.00;5013594;28;20054;-69
2023/08/12 00:17:03;;;;;;;2.92;2.15;;;;;;;18.34;58.78;96830.34;5013358;28;20057;-69
2023/08/12 00:19:32;;;;;;;2.78;2.10;;;;;;;18.37;58.14;96831.94;5013440;28;20050;-69
2023/08/12 00:22:00;;;;;;;3.97;2.10;;;;;;;18.34;59.27;96827.72;5013287;28;20054;-68
2023/08/12 00:24:27;;;;;;;3.70;2.35;;;;;;;18.26;59.25;96827.34;5013384;28;20050;-69
2023/08/12 00:26:54;;;;;;;3.35;2.33;;;;;;;18.24;59.37;96834.56;5013399;28;20089;-69
2023/08/12 00:29:21;;;;;;;2.42;2.22;;;;;;;18.24;58.66;96830.09;5013208;28;20397;-68
2023/08/12 00:31:48;;;;;;;3.17;2.65;;;;;;;18.31;59.14;96825.25;5013223;28;20065;-68
2023/08/12 00:34:16;;;;;;;4.05;2.20;;;;;;;18.33;58.89;96828.63;5013188;28;20056;-68
2023/08/12 00:36:44;;;;;;;4.38;2.42;;;;;;;18.36;58.83;96825.78;5014992;28;20136;-68
2023/08/12 00:39:11;;;;;;;5.05;2.33;;;;;;;18.35;59.04;96828.53;5017141;28;20100;-68
2023/08/12 00:41:39;;;;;;;2.58;2.20;;;;;;;18.34;59.63;96829.50;5017004;28;20407;-69
2023/08/12 00:44:06;;;;;;;4.63;2.20;;;;;;;18.34;58.92;96826.84;5017178;28;20455;-69
2023/08/12 00:46:34;;;;;;;2.95;2.30;;;;;;;18.32;59.83;96821.66;5017041;28;20145;-69
2023/08/12 00:49:02;;;;;;;2.58;2.38;;;;;;;18.26;59.91;96825.56;5017026;28;20562;-69
2023/08/12 00:51:29;;;;;;;2.28;2.13;;;;;;;18.29;60.08;96819.19;5016929;28;20050;-69
2023/08/12 00:53:59;;;;;;;2.40;2.20;;;;;;;18.32;59.90;96819.00;5016895;28;20045;-69
2023/08/12 00:56:27;;;;;;;2.67;2.30;;;;;;;18.33;60.75;96820.69;5016914;28;20053;-69
2023/08/12 00:58:55;;;;;;;3.10;2.50;;;;;;;18.37;60.52;96822.22;5016776;28;20523;-69
2023/08/12 01:01:22;;;;;;;2.70;2.10;;;;;;;18.36;60.86;96822.31;5016787;28;20508;-69
2023/08/12 01:03:49;;;;;;;3.10;2.50;;;;;;;18.38;60.76;96818.59;5016757;28;20046;-69
2023/08/12 01:06:17;;;;;;;2.03;1.92;;;;;;;18.44;60.77;96817.34;5016734;28;20132;-69
2023/08/12 01:08:44;;;;;;;2.17;2.03;;;;;;;18.49;60.99;96817.06;5016566;28;20064;-68
2023/08/12 01:11:21;;;;;;;4.68;2.40;;;;;;;18.50;61.66;96818.75;5016637;28;20046;-68
2023/08/12 01:13:59;;;;;;;2.65;2.10;;;;;;;18.49;61.29;96809.97;5016586;28;20046;-68
2023/08/12 01:16:31;;;;;;;2.50;2.05;;;;;;;18.50;60.93;96808.16;5016677;28;20120;-68
2023/08/12 01:18:59;;;;;;;2.22;2.03;;;;;;;18.57;60.85;96812.09;5016433;28;20132;-68
2023/08/12 01:21:31;;;;;;;4.82;2.70;;;;;;;18.58;61.51;96808.50;5016454;28;20046;-68
2023/08/12 01:24:00;;;;;;;2.55;2.35;;;;;;;18.62;61.14;96810.00;5016432;28;20053;-69
2023/08/12 01:26:28;;;;;;;2.88;2.25;;;;;;;18.61;61.76;96808.31;5016008;28;20403;-69
2023/08/12 01:28:55;;;;;;;2.78;2.15;;;;;;;18.64;62.92;96813.41;5016378;28;20084;-69
2023/08/12 01:31:29;;;;;;;2.50;2.30;;;;;;;18.59;62.37;96812.84;5016242;28;20415;-69
2023/08/12 01:34:03;;;;;;;3.92;2.30;;;;;;;18.59;62.81;96811.97;5016134;28;20459;-68
2023/08/12 01:36:33;;;;;;;2.60;2.40;;;;;;;18.54;63.00;96807.00;5016175;28;20041;-69
2023/08/12 01:39:04;;;;;;;2.92;2.63;;;;;;;18.59;62.51;96814.63;5016466;28;20050;-69
2023/08/12 01:41:31;;;;;;;2.67;2.47;;;;;;;18.60;62.66;96811.06;5016315;28;20057;-69
2023/08/12 01:43:59;;;;;;;2.50;2.28;;;;;;;18.55;61.66;96814.00;5015997;28;20049;-69
2023/08/12 01:46:26;;;;;;;2.60;2.40;;;;;;;18.53;61.67;96813.25;5015725;28;20467;-68
2023/08/12 01:48:53;;;;;;;4.05;2.45;;;;;;;18.55;62.03;96814.00;5016014;28;20076;-68
2023/08/12 01:51:21;;;;;;;2.47;2.15;;;;;;;18.53;61.49;96813.25;5015891;28;20132;-68
2023/08/12 01:53:48;;;;;;;2.15;1.90;;;;;;;18.54;61.21;96812.28;5015882;28;20050;-68
2023/08/12 01:56:17;;;;;;;3.38;2.47;;;;;;;18.55;61.72;96809.53;5015832;28;20050;-69
2023/08/12 01:58:44;;;;;;;6.53;2.60;;;;;;;18.55;61.89;96819.31;5015916;28;20127;-68
2023/08/12 02:01:11;;;;;;;2.83;2.53;;;;;;;18.58;61.70;96818.25;5015753;28;20488;-68
2023/08/12 02:03:38;;;;;;;2.58;2.38;;;;;;;18.55;62.06;96816.66;5015645;28;20049;-68
2023/08/12 02:06:05;;;;;;;3.55;2.40;;;;;;;18.58;62.22;96819.09;5015606;28;20042;-68
2023/08/12 02:08:32;;;;;;;3.78;2.67;;;;;;;18.62;62.40;96814.44;5015396;28;20050;-68
2023/08/12 02:11:00;;;;;;;3.22;2.40;;;;;;;18.63;61.95;96816.97;5015427;28;20054;-68
2023/08/12 02:13:28;;;;;;;2.58;2.22;;;;;;;18.65;62.07;96817.72;5015451;28;20053;-68
2023/08/12 02:15:55;;;;;;;2.30;2.10;;;;;;;18.68;62.47;96820.19;5015595;28;20080;-68
2023/08/12 02:18:22;;;;;;;4.88;2.50;;;;;;;18.69;61.97;96813.94;5015244;28;20057;-68
2023/08/12 02:20:50;;;;;;;3.15;2.53;;;;;;;18.70;62.34;96812.13;5015150;28;20388;-68
2023/08/12 02:23:17;;;;;;;2.63;2.42;;;;;;;18.63;62.02;96816.16;5015377;28;20468;-68
2023/08/12 02:25:45;;;;;;;2.75;2.38;;;;;;;18.64;60.60;96820.47;5015104;28;20046;-68
2023/08/12 02:28:12;;;;;;;2.40;2.20;;;;;;;18.68;60.70;96814.88;5015027;28;20050;-68
2023/08/12 02:30:43;;;;;;;3.83;2.17;;;;;;;18.68;60.81;96819.31;5015169;28;20060;-68
2023/08/12 02:33:10;;;;;;;2.60;2.40;;;;;;;18.71;61.76;96818.25;5015149;28;20100;-68
2023/08/12 02:35:38;;;;;;;3.15;2.67;;;;;;;18.71;61.16;96819.13;5015276;28;20125;-68
2023/08/12 02:38:05;;;;;;;2.50;2.22;;;;;;;18.74;60.75;96818.06;5015185;28;20054;-69
2023/08/12 02:40:32;;;;;;;2.50;2.20;;;;;;;18.77;61.64;96816.06;5014940;28;20058;-68
2023/08/12 02:42:59;;;;;;;2.88;2.40;;;;;;;18.76;60.36;96819.69;5014894;28;20050;-68
2023/08/12 02:45:26;;;;;;;4.40;2.42;;;;;;;18.77;60.80;96829.31;5014940;28;20061;-68
2023/08/12 02:47:55;;;;;;;3.78;2.50;;;;;;;18.78;60.62;96828.34;5014631;28;20060;-68
2023/08/12 02:50:22;;;;;;;6.40;3.00;;;;;;;18.76;60.53;96824.13;5014779;28;20498;-68
2023/08/12 02:52:49;;;;;;;2.47;2.28;;;;;;;18.75;58.71;96823.25;5014907;28;20053;-68
2023/08/12 02:55:16;;;;;;;2.47;2.28;;;;;;;18.74;59.18;96832.16;5014785;28;20045;-68
2023/08/12 02:57:43;;;;;;;3.20;2.58;;;;;;;18.73;56.66;96829.63;5014537;28;20111;-68
2023/08/12 03:00:12;;;;;;;5.97;2.80;;;;;;;18.75;56.78;96830.38;5013682;28;20049;-69
2023/08/12 03:02:39;;;;;;;2.15;1.95;;;;;;;18.80;57.19;96828.25;5014424;28;20054;-69
2023/08/12 03:05:08;;;;;;;5.28;2.42;;;;;;;18.86;59.27;96827.00;5014509;28;20412;-69
2023/08/12 03:07:35;;;;;;;2.88;2.30;;;;;;;18.89;58.98;96829.44;5014401;28;20404;-69
2023/08/12 03:10:02;;;;;;;4.30;2.55;;;;;;;18.85;59.23;96823.50;5014471;28;20073;-69
2023/08/12 03:12:29;;;;;;;2.63;2.30;;;;;;;18.87;59.42;96820.75;5014267;28;20047;-69
2023/08/12 03:14:56;;;;;;;4.28;2.28;;;;;;;18.91;60.43;96823.06;5014470;28;20042;-69
2023/08/12 03:17:23;;;;;;;5.07;2.88;;;;;;;18.90;60.68;96817.91;5014185;28;20587;-68
2023/08/12 03:19:51;;;;;;;2.63;2.28;;;;;;;18.90;61.09;96823.19;5014215;28;20131;-68
2023/08/12 03:22:19;;;;;;;3.00;2.25;;;;;;;18.89;61.03;96821.47;5014126;28;20107;-68
2023/08/12 03:24:46;;;;;;;3.30;2.40;;;;;;;18.89;60.04;96827.63;5014258;28;20061;-69
2023/08/12 03:27:13;;;;;;;2.80;2.50;;;;;;;18.84;59.92;96827.09;5013994;28;20084;-69
2023/08/12 03:29:40;;;;;;;2.50;2.20;;;;;;;18.84;59.67;96827.09;5014144;28;20510;-69
2023/08/12 03:32:08;;;;;;;4.32;2.75;;;;;;;18.87;59.61;96821.59;5014030;28;20092;-69
2023/08/12 03:34:35;;;;;;;2.47;2.28;;;;;;;18.86;59.27;96822.53;5013898;28;20491;-69
2023/08/12 03:37:02;;;;;;;2.80;2.35;;;;;;;18.89;58.77;96824.13;5013992;28;20140;-69
2023/08/12 03:39:30;;;;;;;2.38;2.17;;;;;;;18.91;59.57;96824.88;5013855;28;20092;-69
2023/08/12 03:41:57;;;;;;;5.18;2.42;;;;;;;18.93;59.32;96829.13;5013875;28;20100;-68
2023/08/12 03:44:24;;;;;;;2.78;2.38;;;;;;;18.93;59.17;96831.78;5014057;28;20100;-69
2023/08/12 03:46:51;;;;;;;3.00;2.30;;;;;;;18.92;59.79;96832.75;5013805;28;20583;-69
2023/08/12 03:49:19;;;;;;;4.93;2.50;;;;;;;18.89;59.36;96837.38;5013527;28;20549;-69
2023/08/12 03:51:46;;;;;;;2.80;2.33;;;;;;;18.88;59.71;96831.25;5013687;28;20132;-69
2023/08/12 03:54:13;;;;;;;2.50;2.30;;;;;;;18.90;60.10;96831.97;5013645;28;20053;-69
2023/08/12 03:56:42;;;;;;;6.05;2.40;;;;;;;18.86;60.01;96843.75;5013854;28;20049;-68
2023/08/12 03:59:09;;;;;;;5.70;2.30;;;;;;;18.86;60.49;96842.88;5013596;28;20393;-69
2023/08/12 04:01:36;;;;;;;2.47;2.28;;;;;;;19.00;58.22;96841.97;5013514;28;20562;-69
2023/08/12 04:04:04;;;;;;;4.07;2.65;;;;;;;19.48;56.36;96836.09;5013498;28;20061;-69
2023/08/12 04:06:31;;;;;;;2.65;2.03;;;;;;;19.95;55.01;96840.78;5013481;28;20054;-69
2023/08/12 04:08:58;;;;;;;3.70;2.20;;;;;;;20.43;53.16;96848.00;5013386;28;20089;-69
2023/08/12 04:11:25;;;;;;;6.68;2.10;;;;;;;20.90;52.16;96841.94;5013227;28;20077;-69
2023/08/12 04:13:53;;;;;;;3.03;2.20;;;;;;;21.14;49.82;96854.34;5013319;28;20451;-69
2023/08/12 04:16:20;;;;;;;2.20;2.00;;;;;;;21.14;50.24;96854.34;5013452;28;20096;-69
2023/08/12 04:18:49;;;;;;;2.45;2.05;;;;;;;21.12;50.51;96853.59;5013655;28;20411;-69
2023/08/12 04:21:16;;;;;;;4.35;1.92;;;;;;;21.07;51.38;96858.44;5013424;28;20049;-69
2023/08/12 04:23:43;;;;;;;2.15;1.95;;;;;;;21.05;50.97;96855.88;5013365;28;20050;-69
2023/08/12 04:26:10;;;;;;;2.30;1.88;;;;;;;21.08;50.00;96854.81;5013054;28;20056;-69
2023/08/12 04:28:38;;;;;;;3.15;2.20;;;;;;;21.24;49.86;96859.78;5013273;28;20503;-69
2023/08/12 04:31:09;;;;;;;2.75;1.90;;;;;;;21.16;49.49;96857.72;5013294;28;20511;-69
2023/08/12 04:33:36;;;;;;;2.80;2.08;;;;;;;21.34;49.81;96855.47;5013510;28;20048;-69
2023/08/12 04:36:03;;;;;;;2.17;1.98;;;;;;;21.82;48.73;96860.72;5013269;28;20131;-69
2023/08/12 04:38:31;;;;;;;3.22;2.58;;;;;;;22.44;48.80;96858.47;5013375;28;20053;-69
2023/08/12 04:40:58;;;;;;;5.93;1.98;;;;;;;23.05;48.25;96858.84;5013226;28;20050;-69
2023/08/12 04:43:25;;;;;;;2.50;1.90;;;;;;;23.69;50.24;96855.34;5012979;28;20558;-69
2023/08/12 04:45:53;;;;;;;2.05;1.88;;;;;;;24.20;46.31;96858.91;5013225;28;20651;-69
2023/08/12 04:48:22;;;;;;;3.65;1.70;;;;;;;24.69;44.94;96862.66;5013064;28;20053;-69
2023/08/12 04:50:49;;;;;;;2.40;1.80;;;;;;;25.09;45.73;96866.19;5013206;28;20050;-69
2023/08/12 04:53:16;;;;;;;2.50;1.83;;;;;;;25.47;46.01;96866.28;5013037;28;20053;-69
2023/08/12 04:55:44;;;;;;;2.08;1.90;;;;;;;25.82;43.63;96866.59;5012957;28;20045;-69
2023/08/12 04:58:11;;;;;;;2.00;1.80;;;;;;;26.18;43.41;96860.50;5013043;28;20049;-69
2023/08/12 05:00:38;;;;;;;2.45;1.77;;;;;;;26.51;39.63;96866.28;5012912;28;20046;-69
2023/08/12 05:03:05;;;;;;;2.45;2.25;;;;;;;26.84;40.56;96866.59;5012950;28;20088;-69
2023/08/12 05:05:34;;;;;;;5.03;1.95;;;;;;;26.58;37.47;96871.88;5013154;28;20108;-69
2023/08/12 05:08:01;;;;;;;2.88;2.05;;;;;;;26.37;37.53;96870.34;5013065;28;20248;-69
2023/08/12 05:10:28;;;;;;;3.50;2.22;;;;;;;26.12;38.70;96870.84;5012782;28;20401;-68
2023/08/12 05:12:58;;;;;;;6.47;2.22;;;;;;;25.76;38.33;96880.59;5012823;28;20058;-69
2023/08/12 05:15:25;;;;;;;2.50;2.25;;;;;;;25.61;39.80;96881.03;5013109;28;20137;-69
2023/08/12 05:17:53;;;;;;;2.28;2.08;;;;;;;25.52;38.98;96876.53;5013017;28;20129;-69
2023/08/12 05:20:20;;;;;;;3.47;1.80;;;;;;;25.57;39.09;96877.78;5013342;28;20058;-69
2023/08/12 05:22:49;;;;;;;4.60;1.90;;;;;;;25.72;38.63;96874.69;5014836;28;20116;-69
2023/08/12 05:25:17;;;;;;;5.03;2.08;;;;;;;25.86;38.07;96876.88;5016487;28;20061;-69
2023/08/12 05:27:44;;;;;;;2.33;2.13;;;;;;;25.95;38.87;96880.50;5016803;28;20412;-69
2023/08/12 05:30:13;;;;;;;2.28;2.08;;;;;;;25.79;37.12;96875.78;5016202;28;20050;-68
2023/08/12 05:32:42;;;;;;;2.58;2.38;;;;;;;25.66;37.65;96876.09;5016356;28;20145;-69
2023/08/12 05:35:10;;;;;;;2.42;2.03;;;;;;;25.30;37.87;96886.56;5016428;28;20048;-68
2023/08/12 05:37:38;;;;;;;2.65;1.90;;;;;;;25.52;38.16;96889.94;5016541;28;20085;-68
2023/08/12 05:40:11;;;;;;;2.03;1.67;;;;;;;25.64;37.14;96882.59;5016419;28;20133;-68
2023/08/12 05:42:38;;;;;;;5.65;2.22;;;;;;;25.75;36.61;96882.41;5016281;28;20117;-68
2023/08/12 05:45:06;;;;;;;3.00;2.00;;;;;;;25.86;37.00;96889.44;5016320;28;20132;-68
2023/08/12 05:47:34;;;;;;;3.42;2.10;;;;;;;26.12;36.46;96891.44;5016937;28;20042;-68
2023/08/12 05:50:01;;;;;;;2.85;1.92;;;;;;;26.41;35.95;96885.13;5016421;28;20073;-68
2023/08/12 05:52:28;;;;;;;2.40;2.20;;;;;;;26.63;35.47;96883.00;5016338;28;20046;-68
2023/08/12 05:54:55;;;;;;;3.03;1.95;;;;;;;26.62;35.55;96884.00;5016146;28;20046;-68
2023/08/12 05:57:24;;;;;;;3.35;1.90;;;;;;;26.61;36.34;96883.13;5016041;28;20082;-68
2023/08/12 05:59:51;;;;;;;2.78;2.22;;;;;;;26.77;34.94;96878.94;5016052;28;20054;-68
2023/08/12 06:02:18;;;;;;;2.63;1.88;;;;;;;26.88;35.03;96883.25;5015775;28;20137;-68
2023/08/12 06:04:45;;;;;;;2.78;1.98;;;;;;;27.04;36.28;96884.41;5016072;28;20046;-68
2023/08/12 06:07:12;;;;;;;3.25;2.20;;;;;;;27.02;34.91;96878.38;5015875;28;20455;-68
2023/08/12 06:09:40;;;;;;;2.65;2.25;;;;;;;26.87;35.20;96878.84;5015780;28;20140;-68
2023/08/12 06:12:08;;;;;;;1.75;1.65;;;;;;;27.05;35.08;96880.72;5015846;28;20071;-68
2023/08/12 06:14:38;;;;;;;1.95;1.80;;;;;;;27.17;35.61;96886.69;5015551;28;20081;-68
2023/08/12 06:17:06;;;;;;;2.47;1.77;;;;;;;27.17;34.88;96881.31;5015806;28;20046;-68
2023/08/12 06:19:34;;;;;;;2.08;1.88;;;;;;;27.53;34.80;96880.41;5015679;28;20053;-67
2023/08/12 06:22:01;;;;;;;2.47;1.85;;;;;;;27.69;34.24;96880.53;5015543;28;20053;-68
2023/08/12 06:24:29;;;;;;;2.10;1.90;;;;;;;27.65;33.94;96881.88;5015339;28;20169;-68
2023/08/12 06:26:56;;;;;;;3.88;1.90;;;;;;;27.59;33.37;96883.31;5015192;28;20046;-68
2023/08/12 06:29:23;;;;;;;2.92;1.90;;;;;;;27.52;34.86;96878.72;5015320;28;20060;-68
2023/08/12 06:31:53;;;;;;;2.97;2.20;;;;;;;27.59;34.25;96877.09;5015405;28;20057;-68
2023/08/12 06:34:21;;;;;;;3.17;2.20;;;;;;;27.61;33.87;96881.31;5015199;28;20085;-68
2023/08/12 06:36:48;;;;;;;2.10;1.90;;;;;;;27.38;34.74;96880.97;5014985;28;20049;-68
2023/08/12 06:39:16;;;;;;;2.05;1.85;;;;;;;27.67;33.79;96885.25;5015003;28;20076;-68
2023/08/12 06:41:43;;;;;;;2.83;2.00;;;;;;;27.97;33.43;96876.84;5015036;28;20100;-68
2023/08/12 06:44:11;;;;;;;2.67;1.90;;;;;;;28.10;33.29;96879.91;5015048;28;20100;-68
2023/08/12 06:46:38;;;;;;;3.35;2.05;;;;;;;28.24;33.20;96880.31;5014823;28;20431;-68
2023/08/12 06:49:10;;;;;;;2.55;1.95;;;;;;;28.36;32.39;96878.19;5014774;28;20049;-69
2023/08/12 06:51:37;;;;;;;5.70;2.08;;;;;;;28.21;32.50;96876.09;5014852;28;20054;-69
2023/08/12 06:54:05;;;;;;;3.40;2.03;;;;;;;28.48;33.65;96881.41;5014680;28;20567;-69
2023/08/12 06:56:32;;;;;;;2.58;1.70;;;;;;;28.50;31.79;96874.88;5014801;28;20393;-69
2023/08/12 06:58:59;;;;;;;3.42;2.08;;;;;;;28.54;33.55;96880.78;5014823;28;20049;-68
2023/08/12 07:01:26;;;;;;;2.63;1.83;;;;;;;28.55;32.11;96877.06;5014768;28;20053;-68
2023/08/12 07:03:54;;;;;;;1.95;1.75;;;;;;;28.71;33.40;96875.44;5014591;28;20084;-68
2023/08/12 07:06:23;;;;;;;4.55;2.30;;;;;;;28.86;32.22;96872.91;5014590;28;20046;-68
2023/08/12 07:08:50;;;;;;;3.78;2.10;;;;;;;28.72;31.16;96872.53;5014615;28;20065;-69
2023/08/12 07:11:17;;;;;;;2.20;1.70;;;;;;;28.70;31.58;96877.25;5014736;28;20054;-68
2023/08/12 07:13:46;;;;;;;3.22;1.92;;;;;;;28.63;33.43;96860.94;5014443;28;20573;-68
2023/08/12 07:16:13;;;;;;;2.35;1.98;;;;;;;29.14;32.76;96864.56;5014510;28;20101;-69
2023/08/12 07:18:41;;;;;;;1.75;1.65;;;;;;;29.16;31.22;96867.91;5014503;28;20053;-69
2023/08/12 07:21:08;;;;;;;2.30;2.10;;;;;;;29.45;33.53;96871.94;5014565;28;20049;-68
2023/08/12 07:23:37;;;;;;;1.75;1.55;;;;;;;29.54;31.51;96861.97;5014544;28;20046;-68
2023/08/12 07:26:04;;;;;;;1.45;1.35;;;;;;;29.95;30.72;96855.66;5014076;28;20053;-68
2023/08/12 07:28:32;;;;;;;3.80;1.90;;;;;;;30.00;30.85;96866.75;5014274;28;20143;-68
2023/08/12 07:31:02;;;;;;;2.05;1.88;;;;;;;30.13;30.12;96865.38;5014415;28;20060;-69
2023/08/12 07:33:31;;;;;;;2.45;1.80;;;;;;;29.98;29.26;96860.69;5014092;28;20061;-69
2023/08/12 07:35:58;;;;;;;2.75;1.77;;;;;;;29.98;29.72;96865.25;5014140;28;20042;-69
2023/08/12 07:38:26;;;;;;;2.90;1.90;;;;;;;30.03;29.29;96862.88;5014310;28;20129;-68
2023/08/12 07:40:55;;;;;;;2.50;1.80;;;;;;;29.92;29.87;96871.34;5014140;28;20100;-69
2023/08/12 07:43:23;;;;;;;2.00;1.80;;;;;;;29.87;30.23;96866.47;5014159;28;20053;-69
2023/08/12 07:45:53;;;;;;;2.13;1.77;;;;;;;29.75;29.68;96866.00;5013391;28;20046;-69
2023/08/12 07:48:20;;;;;;;3.45;1.60;;;;;;;29.75;30.84;96858.75;5014022;28;20048;-69
2023/08/12 07:50:48;;;;;;;2.53;1.70;;;;;;;30.02;30.29;96859.34;5013762;28;20046;-68
2023/08/12 07:53:16;;;;;;;2.20;2.00;;;;;;;29.85;29.52;96860.41;5013803;28;20407;-68
2023/08/12 07:55:43;;;;;;;2.65;1.83;;;;;;;29.56;30.03;96856.44;5013700;28;20054;-68
2023/08/12 07:58:12;;;;;;;2.65;1.70;;;;;;;29.54;30.40;96855.75;5013989;28;20053;-69
2023/08/12 08:00:40;;;;;;;2.38;1.83;;;;;;;29.34;29.78;96851.56;5013781;28;20045;-68
2023/08/12 08:03:08;;;;;;;2.30;1.65;;;;;;;29.07;31.32;96850.91;5013735;28;20046;-68
2023/08/12 08:05:35;;;;;;;3.50;1.90;;;;;;;28.86;30.84;96841.47;5013636;28;20053;-69
2023/08/12 08:08:02;;;;;;;1.95;1.77;;;;;;;28.94;31.45;96843.34;5013600;28;20045;-69
2023/08/12 08:10:29;;;;;;;2.10;1.60;;;;;;;29.32;30.98;96845.53;5013683;28;20049;-68
2023/08/12 08:12:57;;;;;;;3.42;1.52;;;;;;;29.38;29.92;96839.44;5013559;28;20046;-69
2023/08/12 08:15:25;;;;;;;2.25;2.03;;;;;;;29.66;30.37;96843.63;5013629;28;20042;-69
2023/08/12 08:17:53;;;;;;;2.38;1.60;;;;;;;29.41;29.70;96848.19;5013749;28;20133;-69
2023/08/12 08:20:20;;;;;;;4.38;1.83;;;;;;;29.11;30.34;96846.88;5013522;28;20045;-68
2023/08/12 08:22:48;;;;;;;1.75;1.65;;;;;;;29.00;30.63;96839.13;5013639;28;20054;-69
2023/08/12 08:25:15;;;;;;;2.92;1.70;;;;;;;28.94;30.69;96839.81;5013355;28;20567;-69
2023/08/12 08:27:42;;;;;;;2.97;1.52;;;;;;;29.11;29.18;96835.28;5013274;28;20053;-69
2023/08/12 08:30:11;;;;;;;1.90;1.52;;;;;;;29.01;31.02;96840.81;5013209;28;20416;-68
2023/08/12 08:32:39;;;;;;;2.83;1.95;;;;;;;29.09;31.03;96834.59;5013357;28;20133;-68
2023/08/12 08:35:07;;;;;;;4.47;1.58;;;;;;;28.89;30.09;96826.81;5013224;28;20046;-68
2023/08/12 08:37:34;;;;;;;3.00;1.85;;;;;;;29.16;30.67;96838.28;5013117;28;20519;-68
2023/08/12 08:40:03;;;;;;;2.28;1.73;;;;;;;29.24;29.63;96840.97;5013300;28;20046;-69
2023/08/12 08:42:30;;;;;;;3.70;1.75;;;;;;;29.21;29.21;96832.38;5013188;28;20690;-68
2023/08/12 08:45:01;;;;;;;5.40;1.65;;;;;;;29.14;30.61;96835.75;5013278;28;20045;-68
2023/08/12 08:47:29;;;;;;;5.40;1.80;;;;;;;29.32;30.06;96831.22;5013181;28;20050;-68
2023/08/12 08:49:58;;;;;;;1.70;1.60;;;;;;;29.63;30.11;96823.25;5013078;28;20137;-68
2023/08/12 08:52:26;;;;;;;3.03;1.50;;;;;;;29.40;29.77;96833.88;5013130;28;20085;-68
2023/08/12 08:54:54;;;;;;;1.88;1.73;;;;;;;29.33;30.52;96833.72;5013150;28;20381;-68
2023/08/12 08:57:21;;;;;;;2.50;1.95;;;;;;;29.44;30.81;96820.91;5014468;28;20057;-68
2023/08/12 08:59:49;;;;;;;3.40;1.85;;;;;;;29.49;29.73;96811.31;5016944;28;20042;-68
2023/08/12 09:02:18;;;;;;;2.40;1.70;;;;;;;29.58;30.04;96819.38;5016947;28;20049;-68
2023/08/12 09:04:47;;;;;;;2.50;1.45;;;;;;;29.41;30.00;96821.25;5016973;28;20145;-69
2023/08/12 09:07:15;;;;;;;2.70;1.80;;;;;;;29.63;29.85;96809.78;5017030;28;20134;-68
2023/08/12 09:09:47;;;;;;;2.22;1.63;;;;;;;29.63;29.03;96825.09;5016703;28;20053;-68
2023/08/12 09:12:16;;;;;;;4.32;1.77;;;;;;;29.34;29.55;96808.47;5016759;28;20056;-68
2023/08/12 09:14:44;;;;;;;2.20;1.73;;;;;;;29.57;30.08;96805.09;5016872;28;20050;-69
2023/08/12 09:17:12;;;;;;;3.75;1.85;;;;;;;29.78;28.78;96803.69;5016805;28;20128;-68
2023/08/12 09:19:39;;;;;;;1.83;1.60;;;;;;;29.47;28.45;96805.25;5016544;28;20514;-68
2023/08/12 09:22:06;;;;;;;2.15;1.60;;;;;;;29.23;30.14;96808.84;5016748;28;20074;-68
2023/08/12 09:24:35;;;;;;;1.80;1.70;;;;;;;29.32;29.42;96812.34;5016457;28;20084;-68
2023/08/12 09:27:02;;;;;;;1.98;1.60;;;;;;;29.43;28.90;96798.53;5036316;28;20049;-68
2023/08/12 09:29:32;;;;;;;4.07;1.58;;;;;;;29.47;30.10;96794.47;5036160;28;20049;-68
2023/08/12 09:32:07;;;;;;;2.50;1.45;;;;;;;29.47;29.68;96791.78;5036468;28;20491;-68
2023/08/12 09:34:36;;;;;;;4.15;1.88;;;;;;;29.59;28.86;96799.53;5035987;28;20041;-68
2023/08/12 09:37:04;;;;;;;1.55;1.45;;;;;;;29.78;28.00;96798.28;5036099;28;20077;-68
2023/08/12 09:39:32;;;;;;;2.00;1.70;;;;;;;29.72;28.46;96786.34;5036307;28;20057;-68
2023/08/12 09:42:01;;;;;;;4.78;1.80;;;;;;;29.89;28.58;96792.50;5036064;28;20053;-68
2023/08/12 09:44:29;;;;;;;3.47;2.20;;;;;;;29.75;28.03;96785.16;5036016;28;20053;-68
2023/08/12 09:47:00;;;;;;;1.92;1.50;;;;;;;29.52;28.86;96784.03;5036211;28;20049;-68
2023/08/12 09:49:27;;;;;;;3.47;1.73;;;;;;;29.37;28.94;96786.59;5035951;28;20053;-68
2023/08/12 09:51:55;;;;;;;1.92;1.55;;;;;;;29.18;27.86;96790.50;5035867;28;20133;-68
2023/08/12 09:54:24;;;;;;;2.97;1.50;;;;;;;29.29;28.72;96786.63;5035740;28;20052;-68
2023/08/12 09:56:58;;;;;;;2.35;1.50;;;;;;;29.58;28.50;96778.97;5035696;28;20454;-68
2023/08/12 09:59:33;;;;;;;1.52;1.42;;;;;;;30.09;28.78;96775.88;5036002;28;21209;-68
2023/08/12 10:02:03;;;;;;;2.45;1.60;;;;;;;30.37;27.33;96771.91;5035576;28;20053;-68
2023/08/12 10:04:39;;;;;;;1.67;1.42;;;;;;;30.49;26.62;96769.63;5035743;28;20057;-68
2023/08/12 10:07:07;;;;;;;3.30;1.50;;;;;;;30.43;25.34;96765.75;5035965;28;20050;-68
2023/08/12 10:09:36;;;;;;;1.52;1.33;;;;;;;30.71;26.65;96773.31;5035124;28;20045;-68
2023/08/12 10:12:03;;;;;;;2.17;1.25;;;;;;;30.54;25.38;96758.25;5035392;28;20042;-68
2023/08/12 10:14:34;;;;;;;1.60;1.40;;;;;;;30.67;26.20;96763.06;5035450;28;20045;-68
2023/08/12 10:17:01;;;;;;;2.05;1.52;;;;;;;30.24;25.82;96762.53;5035548;28;20045;-68
2023/08/12 10:19:39;;;;;;;1.65;1.33;;;;;;;30.39;26.33;96767.13;5035257;28;20057;-68
2023/08/12 10:22:08;;;;;;;4.03;1.48;;;;;;;30.67;25.61;96763.88;5033907;28;20148;-68
2023/08/12 10:24:37;;;;;;;1.40;1.20;;;;;;;30.76;25.69;96759.31;5035192;28;20049;-68
2023/08/12 10:27:06;;;;;;;3.75;1.40;;;;;;;30.74;25.62;96750.53;5035326;28;20048;-68
2023/08/12 10:29:37;;;;;;;1.52;1.40;;;;;;;30.42;25.64;96760.53;5035032;28;20407;-68
2023/08/12 10:32:14;;;;;;;;;;;;;;;30.37;25.92;96744.91;5036148;28;20562;-68
2023/08/12 10:34:42;;;;;;;3.95;1.30;;;;;;;30.58;26.02;96755.03;5034481;28;19947;-68
2023/08/12 10:37:12;;;;;;;4.60;1.60;;;;;;;30.36;27.29;96744.06;5035836;28;20599;-68
2023/08/12 10:39:41;;;;;;;3.13;1.40;;;;;;;30.28;26.53;96744.16;5035046;28;20411;-68
2023/08/12 10:42:08;;;;;;;2.00;1.30;;;;;;;30.35;27.32;96750.50;5034889;28;20045;-68
2023/08/12 10:44:51;;;;;;;1.58;1.42;;;;;;;30.48;26.59;96739.09;5034683;28;20499;-68
2023/08/12 10:47:19;;;;;;;1.58;1.45;;;;;;;30.58;26.99;96738.84;5034645;28;20052;-68
2023/08/12 10:49:50;;;;;;;2.72;1.58;;;;;;;30.64;25.96;96738.13;5034572;28;20049;-68
2023/08/12 10:52:32;;;;;;;3.00;1.30;;;;;;;30.63;26.63;96738.28;5034557;28;20053;-68
2023/08/12 10:55:21;;;;;;;3.10;1.35;;;;;;;30.45;26.47;96736.75;5034510;28;20049;-68
2023/08/12 10:57:49;;;;;;;1.55;1.45;;;;;;;30.18;27.01;96735.41;5034429;28;20107;-68
2023/08/12 11:00:21;;;;;;;2.80;1.60;;;;;;;29.50;27.45;96734.03;5034392;28;20050;-68
2023/08/12 11:02:52;;;;;;;1.55;1.45;;;;;;;29.00;28.63;96743.09;5034366;28;20460;-68
2023/08/12 11:05:20;;;;;;;;;;;;;;;28.41;28.98;96735.19;5035485;28;20053;-68
2023/08/12 11:07:49;;;;;;;5.45;1.48;;;;;;;28.04;29.64;96734.56;5034626;28;19921;-68
2023/08/12 11:10:19;;;;;;;1.42;1.33;;;;;;;28.17;30.06;96724.19;5034485;28;20053;-69
2023/08/12 11:12:55;;;;;;;1.23;1.13;;;;;;;28.60;31.23;96724.06;5034215;28;20384;-68
2023/08/12 11:15:33;;;;;;;1.77;1.42;;;;;;;29.11;28.13;96731.09;5034283;28;20100;-68
2023/08/12 11:18:05;;;;;;;3.45;1.50;;;;;;;29.33;27.25;96730.53;5034119;28;20099;-68
2023/08/12 11:20:32;;;;;;;1.52;1.38;;;;;;;29.48;26.93;96731.50;5033431;28;20081;-68
2023/08/12 11:23:00;;;;;;;2.92;1.58;;;;;;;29.46;26.71;96722.75;5034126;28;20041;-68
2023/08/12 11:25:30;;;;;;;2.45;1.45;;;;;;;29.70;26.77;96717.47;5027096;28;20042;-68
2023/08/12 11:27:58;;;;;;;1.55;1.35;;;;;;;29.72;27.22;96720.81;5014387;28;20046;-68
2023/08/12 11:30:26;;;;;;;4.68;1.23;;;;;;;29.62;27.59;96716.47;5014115;28;20061;-68
2023/08/12 11:32:57;;;;;;;4.05;1.50;;;;;;;29.49;28.32;96719.72;5014107;28;20041;-68
2023/08/12 11:35:24;;;;;;;;;;;;;;;29.17;27.15;96723.34;5014453;28;20054;-68
2023/08/12 11:37:53;;;;;;;1.55;1.42;;;;;;;29.11;28.85;96714.94;5014116;28;19921;-68
2023/08/12 11:40:21;;;;;;;5.20;1.70;;;;;;;29.17;28.70;96724.22;5014189;28;20056;-68